sensor_id;sensor_type;location;lat;lon;timestamp;temperature;humidity
5174;DHT22;2606;50.934;6.934;2022-11-20T00:00:43;4.40;99.90
5174;DHT22;2606;50.934;6.934;2022-11-20T00:03:08;4.40;99.90
5174;DHT22;2606;50.934;6.934;2022-11-20T00:05:34;4.40;99.90
5174;DHT22;2606;50.934;6.934;2022-11-20T00:07:59;4.40;99.90
5174;DHT22;2606;50.934;6.934;2022-11-20T00:10:25;4.40;99.90
5174;DHT22;2606;50.934;6.934;2022-11-20T00:12:50;4.40;99.90
5174;DHT22;2606;50.934;6.934;2022-11-20T00:15:16;4.40;99.90
5174;DHT22;2606;50.934;6.934;2022-11-20T00:17:41;4.50;99.90
5174;DHT22;2606;50.934;6.934;2022-11-20T00:20:07;4.50;99.90
5174;DHT22;2606;50.934;6.934;2022-11-20T00:22:33;4.40;99.90
5174;DHT22;2606;50.934;6.934;2022-11-20T00:24:58;4.40;99.90
5174;DHT22;2606;50.934;6.934;2022-11-20T00:27:24;4.40;99.90
5174;DHT22;2606;50.934;6.934;2022-11-20T00:29:50;4.40;99.90
5174;DHT22;2606;50.934;6.934;2022-11-20T00:32:15;4.40;99.90
5174;DHT22;2606;50.934;6.934;2022-11-20T00:34:41;4.40;99.90
5174;DHT22;2606;50.934;6.934;2022-11-20T00:37:06;4.40;99.90
5174;DHT22;2606;50.934;6.934;2022-11-20T00:39:32;4.40;99.90
5174;DHT22;2606;50.934;6.934;2022-11-20T00:41:57;4.40;99.90
5174;DHT22;2606;50.934;6.934;2022-11-20T00:44:23;4.30;99.90
5174;DHT22;2606;50.934;6.934;2022-11-20T00:46:48;4.40;99.90
5174;DHT22;2606;50.934;6.934;2022-11-20T00:49:14;4.30;99.90
5174;DHT22;2606;50.934;6.934;2022-11-20T00:51:39;4.30;99.90
5174;DHT22;2606;50.934;6.934;2022-11-20T00:54:05;4.30;99.90
5174;DHT22;2606;50.934;6.934;2022-11-20T00:56:30;4.30;99.90
5174;DHT22;2606;50.934;6.934;2022-11-20T00:58:59;4.20;99.90
5174;DHT22;2606;50.934;6.934;2022-11-20T01:01:26;4.20;99.90
5174;DHT22;2606;50.934;6.934;2022-11-20T01:03:57;4.20;99.90
5174;DHT22;2606;50.934;6.934;2022-11-20T01:06:30;4.20;99.90
5174;DHT22;2606;50.934;6.934;2022-11-20T01:08:58;4.20;99.90
5174;DHT22;2606;50.934;6.934;2022-11-20T01:11:27;4.10;99.90
5174;DHT22;2606;50.934;6.934;2022-11-20T01:13:53;4.20;99.90
5174;DHT22;2606;50.934;6.934;2022-11-20T01:16:25;4.20;99.90
5174;DHT22;2606;50.934;6.934;2022-11-20T01:18:53;4.20;99.90
5174;DHT22;2606;50.934;6.934;2022-11-20T01:21:25;4.20;99.90
5174;DHT22;2606;50.934;6.934;2022-11-20T01:23:51;4.20;99.90
5174;DHT22;2606;50.934;6.934;2022-11-20T01:26:20;4.20;99.90
5174;DHT22;2606;50.934;6.934;2022-11-20T01:28:47;4.20;99.90
5174;DHT22;2606;50.934;6.934;2022-11-20T01:31:27;4.20;99.90
5174;DHT22;2606;50.934;6.934;2022-11-20T01:33:58;4.20;99.90
5174;DHT22;2606;50.934;6.934;2022-11-20T01:36:28;4.30;99.90
5174;DHT22;2606;50.934;6.934;2022-11-20T01:38:57;4.30;99.90
5174;DHT22;2606;50.934;6.934;2022-11-20T01:41:24;4.30;99.90
5174;DHT22;2606;50.934;6.934;2022-11-20T01:44:12;4.30;99.90
5174;DHT22;2606;50.934;6.934;2022-11-20T01:46:47;4.20;99.90
5174;DHT22;2606;50.934;6.934;2022-11-20T01:49:19;4.20;99.90
5174;DHT22;2606;50.934;6.934;2022-11-20T01:52:16;4.20;99.90
5174;DHT22;2606;50.934;6.934;2022-11-20T01:54:53;4.30;99.90
5174;DHT22;2606;50.934;6.934;2022-11-20T01:57:23;4.30;99.90
5174;DHT22;2606;50.934;6.934;2022-11-20T01:59:56;4.30;99.90
5174;DHT22;2606;50.934;6.934;2022-11-20T02:02:23;4.30;99.90
5174;DHT22;2606;50.934;6.934;2022-11-20T02:04:52;4.20;99.90
5174;DHT22;2606;50.934;6.934;2022-11-20T02:07:20;4.30;99.90
5174;DHT22;2606;50.934;6.934;2022-11-20T02:09:46;4.30;99.90
5174;DHT22;2606;50.934;6.934;2022-11-20T02:12:12;4.20;99.90
5174;DHT22;2606;50.934;6.934;2022-11-20T02:14:57;4.20;99.90
5174;DHT22;2606;50.934;6.934;2022-11-20T02:17:24;4.20;99.90
5174;DHT22;2606;50.934;6.934;2022-11-20T02:19:49;4.30;99.90
5174;DHT22;2606;50.934;6.934;2022-11-20T02:22:27;4.30;99.90
5174;DHT22;2606;50.934;6.934;2022-11-20T02:24:54;4.30;99.90
5174;DHT22;2606;50.934;6.934;2022-11-20T02:27:20;4.30;99.90
5174;DHT22;2606;50.934;6.934;2022-11-20T02:29:55;4.30;99.90
5174;DHT22;2606;50.934;6.934;2022-11-20T02:32:28;4.30;99.90
5174;DHT22;2606;50.934;6.934;2022-11-20T02:34:54;4.30;99.90
5174;DHT22;2606;50.934;6.934;2022-11-20T02:37:20;4.30;99.90
5174;DHT22;2606;50.934;6.934;2022-11-20T02:39:48;4.30;99.90
5174;DHT22;2606;50.934;6.934;2022-11-20T02:42:14;4.30;99.90
5174;DHT22;2606;50.934;6.934;2022-11-20T02:44:40;4.30;99.90
5174;DHT22;2606;50.934;6.934;2022-11-20T02:47:06;4.30;99.90
5174;DHT22;2606;50.934;6.934;2022-11-20T02:49:31;4.30;99.90
5174;DHT22;2606;50.934;6.934;2022-11-20T02:51:57;4.30;99.90
5174;DHT22;2606;50.934;6.934;2022-11-20T02:54:23;4.30;99.90
5174;DHT22;2606;50.934;6.934;2022-11-20T02:56:49;4.20;99.90
5174;DHT22;2606;50.934;6.934;2022-11-20T02:59:14;4.20;99.90
5174;DHT22;2606;50.934;6.934;2022-11-20T03:01:40;4.20;99.90
5174;DHT22;2606;50.934;6.934;2022-11-20T03:04:05;4.30;99.90
5174;DHT22;2606;50.934;6.934;2022-11-20T03:06:31;4.20;99.90
5174;DHT22;2606;50.934;6.934;2022-11-20T03:08:57;4.20;99.90
5174;DHT22;2606;50.934;6.934;2022-11-20T03:11:22;4.20;99.90
5174;DHT22;2606;50.934;6.934;2022-11-20T03:13:48;4.20;99.90
5174;DHT22;2606;50.934;6.934;2022-11-20T03:16:19;4.20;99.90
5174;DHT22;2606;50.934;6.934;2022-11-20T03:18:46;4.20;99.90
5174;DHT22;2606;50.934;6.934;2022-11-20T03:21:13;4.20;99.90
5174;DHT22;2606;50.934;6.934;2022-11-20T03:23:39;4.20;99.90
5174;DHT22;2606;50.934;6.934;2022-11-20T03:28:36;4.20;99.90
5174;DHT22;2606;50.934;6.934;2022-11-20T03:31:10;4.20;99.90
5174;DHT22;2606;50.934;6.934;2022-11-20T03:33:36;4.20;99.90
5174;DHT22;2606;50.934;6.934;2022-11-20T03:36:08;4.20;99.90
5174;DHT22;2606;50.934;6.934;2022-11-20T03:38:34;4.20;99.90
5174;DHT22;2606;50.934;6.934;2022-11-20T03:41:05;4.20;99.90
5174;DHT22;2606;50.934;6.934;2022-11-20T03:43:31;4.20;99.90
5174;DHT22;2606;50.934;6.934;2022-11-20T03:45:57;4.30;99.90
5174;DHT22;2606;50.934;6.934;2022-11-20T03:48:23;4.20;99.90
5174;DHT22;2606;50.934;6.934;2022-11-20T03:50:49;4.20;99.90
5174;DHT22;2606;50.934;6.934;2022-11-20T03:53:15;4.20;99.90
5174;DHT22;2606;50.934;6.934;2022-11-20T03:55:41;4.20;99.90
5174;DHT22;2606;50.934;6.934;2022-11-20T03:58:07;4.20;99.90
5174;DHT22;2606;50.934;6.934;2022-11-20T04:00:33;4.20;99.90
5174;DHT22;2606;50.934;6.934;2022-11-20T04:02:59;4.20;99.90
5174;DHT22;2606;50.934;6.934;2022-11-20T04:05:25;4.20;99.90
5174;DHT22;2606;50.934;6.934;2022-11-20T04:07:51;4.20;99.90
5174;DHT22;2606;50.934;6.934;2022-11-20T04:10:16;4.20;99.90
5174;DHT22;2606;50.934;6.934;2022-11-20T04:12:42;4.20;99.90
5174;DHT22;2606;50.934;6.934;2022-11-20T04:15:08;4.20;99.90
5174;DHT22;2606;50.934;6.934;2022-11-20T04:17:34;4.20;99.90
5174;DHT22;2606;50.934;6.934;2022-11-20T04:20:00;4.20;99.90
5174;DHT22;2606;50.934;6.934;2022-11-20T04:22:25;4.10;99.90
5174;DHT22;2606;50.934;6.934;2022-11-20T04:24:51;4.20;99.90
5174;DHT22;2606;50.934;6.934;2022-11-20T04:27:17;4.10;99.90
5174;DHT22;2606;50.934;6.934;2022-11-20T04:29:42;4.10;99.90
5174;DHT22;2606;50.934;6.934;2022-11-20T04:32:08;4.10;99.90
5174;DHT22;2606;50.934;6.934;2022-11-20T04:34:34;4.10;99.90
5174;DHT22;2606;50.934;6.934;2022-11-20T04:37:00;4.10;99.90
5174;DHT22;2606;50.934;6.934;2022-11-20T04:39:25;4.10;99.90
5174;DHT22;2606;50.934;6.934;2022-11-20T04:41:51;4.10;99.90
5174;DHT22;2606;50.934;6.934;2022-11-20T04:44:36;4.10;99.90
5174;DHT22;2606;50.934;6.934;2022-11-20T04:47:02;4.10;99.90
5174;DHT22;2606;50.934;6.934;2022-11-20T04:49:27;4.00;99.90
5174;DHT22;2606;50.934;6.934;2022-11-20T04:51:53;4.00;99.90
5174;DHT22;2606;50.934;6.934;2022-11-20T04:54:19;4.00;99.90
5174;DHT22;2606;50.934;6.934;2022-11-20T04:56:47;4.00;99.90
5174;DHT22;2606;50.934;6.934;2022-11-20T04:59:13;3.90;99.90
5174;DHT22;2606;50.934;6.934;2022-11-20T05:01:39;3.90;99.90
5174;DHT22;2606;50.934;6.934;2022-11-20T05:04:05;3.90;99.90
5174;DHT22;2606;50.934;6.934;2022-11-20T05:06:31;3.90;99.90
5174;DHT22;2606;50.934;6.934;2022-11-20T05:08:56;3.90;99.90
5174;DHT22;2606;50.934;6.934;2022-11-20T05:11:22;3.90;99.90
5174;DHT22;2606;50.934;6.934;2022-11-20T05:13:49;3.90;99.90
5174;DHT22;2606;50.934;6.934;2022-11-20T05:16:20;4.00;99.90
5174;DHT22;2606;50.934;6.934;2022-11-20T05:18:46;4.00;99.90
5174;DHT22;2606;50.934;6.934;2022-11-20T05:21:12;4.00;99.90
5174;DHT22;2606;50.934;6.934;2022-11-20T05:23:39;4.00;99.90
5174;DHT22;2606;50.934;6.934;2022-11-20T05:26:07;4.00;99.90
5174;DHT22;2606;50.934;6.934;2022-11-20T05:28:34;4.00;99.90
5174;DHT22;2606;50.934;6.934;2022-11-20T05:31:10;4.00;99.90
5174;DHT22;2606;50.934;6.934;2022-11-20T05:33:36;4.00;99.90
5174;DHT22;2606;50.934;6.934;2022-11-20T05:36:05;4.10;99.90
5174;DHT22;2606;50.934;6.934;2022-11-20T05:38:32;4.00;99.90
5174;DHT22;2606;50.934;6.934;2022-11-20T05:41:26;4.10;99.90
5174;DHT22;2606;50.934;6.934;2022-11-20T05:43:52;4.10;99.90
5174;DHT22;2606;50.934;6.934;2022-11-20T05:46:20;4.10;99.90
5174;DHT22;2606;50.934;6.934;2022-11-20T05:48:46;4.10;99.90
5174;DHT22;2606;50.934;6.934;2022-11-20T05:51:17;4.10;99.90
5174;DHT22;2606;50.934;6.934;2022-11-20T05:53:43;4.10;99.90
5174;DHT22;2606;50.934;6.934;2022-11-20T05:56:12;4.10;99.90
5174;DHT22;2606;50.934;6.934;2022-11-20T05:58:38;4.10;99.90
5174;DHT22;2606;50.934;6.934;2022-11-20T06:01:22;4.10;99.90
5174;DHT22;2606;50.934;6.934;2022-11-20T06:03:48;4.10;99.90
5174;DHT22;2606;50.934;6.934;2022-11-20T06:06:16;4.10;99.90
5174;DHT22;2606;50.934;6.934;2022-11-20T06:08:43;4.10;99.90
5174;DHT22;2606;50.934;6.934;2022-11-20T06:11:11;4.00;99.90
5174;DHT22;2606;50.934;6.934;2022-11-20T06:13:38;4.00;99.90
5174;DHT22;2606;50.934;6.934;2022-11-20T06:16:04;4.10;99.90
5174;DHT22;2606;50.934;6.934;2022-11-20T06:18:30;4.10;99.90
5174;DHT22;2606;50.934;6.934;2022-11-20T06:21:00;4.10;99.90
5174;DHT22;2606;50.934;6.934;2022-11-20T06:23:28;4.10;99.90
5174;DHT22;2606;50.934;6.934;2022-11-20T06:25:54;4.00;99.90
5174;DHT22;2606;50.934;6.934;2022-11-20T06:28:20;4.10;99.90
5174;DHT22;2606;50.934;6.934;2022-11-20T06:30:45;4.10;99.90
5174;DHT22;2606;50.934;6.934;2022-11-20T06:33:11;4.10;99.90
5174;DHT22;2606;50.934;6.934;2022-11-20T06:35:37;4.10;99.90
5174;DHT22;2606;50.934;6.934;2022-11-20T06:38:02;4.10;99.90
5174;DHT22;2606;50.934;6.934;2022-11-20T06:40:28;4.10;99.90
5174;DHT22;2606;50.934;6.934;2022-11-20T06:42:54;4.20;99.90
5174;DHT22;2606;50.934;6.934;2022-11-20T06:45:20;4.20;99.90
5174;DHT22;2606;50.934;6.934;2022-11-20T06:47:46;4.10;99.90
5174;DHT22;2606;50.934;6.934;2022-11-20T06:50:12;4.20;99.90
5174;DHT22;2606;50.934;6.934;2022-11-20T06:52:37;4.20;99.90
5174;DHT22;2606;50.934;6.934;2022-11-20T06:55:03;4.20;99.90
5174;DHT22;2606;50.934;6.934;2022-11-20T06:57:29;4.20;99.90
5174;DHT22;2606;50.934;6.934;2022-11-20T06:59:54;4.10;99.90
5174;DHT22;2606;50.934;6.934;2022-11-20T07:02:20;4.20;99.90
5174;DHT22;2606;50.934;6.934;2022-11-20T07:04:46;4.20;99.90
5174;DHT22;2606;50.934;6.934;2022-11-20T07:07:11;4.20;99.90
5174;DHT22;2606;50.934;6.934;2022-11-20T07:09:37;4.20;99.90
5174;DHT22;2606;50.934;6.934;2022-11-20T07:12:03;4.20;99.90
5174;DHT22;2606;50.934;6.934;2022-11-20T07:14:28;4.20;99.90
5174;DHT22;2606;50.934;6.934;2022-11-20T07:16:54;4.20;99.90
5174;DHT22;2606;50.934;6.934;2022-11-20T07:19:20;4.20;99.90
5174;DHT22;2606;50.934;6.934;2022-11-20T07:21:45;4.20;99.90
5174;DHT22;2606;50.934;6.934;2022-11-20T07:24:11;4.20;99.90
5174;DHT22;2606;50.934;6.934;2022-11-20T07:26:36;4.20;99.90
5174;DHT22;2606;50.934;6.934;2022-11-20T07:29:02;4.20;99.90
5174;DHT22;2606;50.934;6.934;2022-11-20T07:31:27;4.30;99.90
5174;DHT22;2606;50.934;6.934;2022-11-20T07:33:53;4.30;99.90
5174;DHT22;2606;50.934;6.934;2022-11-20T07:36:18;4.30;99.90
5174;DHT22;2606;50.934;6.934;2022-11-20T07:38:44;4.30;99.90
5174;DHT22;2606;50.934;6.934;2022-11-20T07:41:09;4.30;99.90
5174;DHT22;2606;50.934;6.934;2022-11-20T07:43:35;4.30;99.90
5174;DHT22;2606;50.934;6.934;2022-11-20T07:46:00;4.30;99.90
5174;DHT22;2606;50.934;6.934;2022-11-20T07:48:26;4.30;99.90
5174;DHT22;2606;50.934;6.934;2022-11-20T07:50:56;4.30;99.90
5174;DHT22;2606;50.934;6.934;2022-11-20T07:53:22;4.30;99.90
5174;DHT22;2606;50.934;6.934;2022-11-20T07:55:48;4.30;99.90
5174;DHT22;2606;50.934;6.934;2022-11-20T07:58:15;4.30;99.90
5174;DHT22;2606;50.934;6.934;2022-11-20T08:00:41;4.30;99.90
5174;DHT22;2606;50.934;6.934;2022-11-20T08:03:07;4.30;99.90
5174;DHT22;2606;50.934;6.934;2022-11-20T08:05:33;4.40;99.90
5174;DHT22;2606;50.934;6.934;2022-11-20T08:07:58;4.40;99.90
5174;DHT22;2606;50.934;6.934;2022-11-20T08:10:24;4.40;99.90
5174;DHT22;2606;50.934;6.934;2022-11-20T08:12:51;4.40;99.90
5174;DHT22;2606;50.934;6.934;2022-11-20T08:15:37;4.40;99.90
5174;DHT22;2606;50.934;6.934;2022-11-20T08:18:05;4.40;99.90
5174;DHT22;2606;50.934;6.934;2022-11-20T08:20:31;4.50;99.90
5174;DHT22;2606;50.934;6.934;2022-11-20T08:22:58;4.50;99.90
5174;DHT22;2606;50.934;6.934;2022-11-20T08:25:25;4.60;99.90
5174;DHT22;2606;50.934;6.934;2022-11-20T08:27:51;4.70;99.90
5174;DHT22;2606;50.934;6.934;2022-11-20T08:30:16;4.70;99.90
5174;DHT22;2606;50.934;6.934;2022-11-20T08:32:42;4.70;99.90
5174;DHT22;2606;50.934;6.934;2022-11-20T08:35:08;4.80;99.90
5174;DHT22;2606;50.934;6.934;2022-11-20T08:37:33;4.80;99.90
5174;DHT22;2606;50.934;6.934;2022-11-20T08:39:59;4.80;99.90
5174;DHT22;2606;50.934;6.934;2022-11-20T08:42:24;4.80;99.90
5174;DHT22;2606;50.934;6.934;2022-11-20T08:44:50;4.80;99.90
5174;DHT22;2606;50.934;6.934;2022-11-20T08:47:15;4.90;99.90
5174;DHT22;2606;50.934;6.934;2022-11-20T08:49:41;4.90;99.90
5174;DHT22;2606;50.934;6.934;2022-11-20T08:52:07;4.90;99.90
5174;DHT22;2606;50.934;6.934;2022-11-20T08:54:32;5.00;99.90
5174;DHT22;2606;50.934;6.934;2022-11-20T08:56:58;5.00;99.90
5174;DHT22;2606;50.934;6.934;2022-11-20T08:59:23;5.00;99.90
5174;DHT22;2606;50.934;6.934;2022-11-20T09:01:49;5.00;99.90
5174;DHT22;2606;50.934;6.934;2022-11-20T09:04:15;5.00;99.90
5174;DHT22;2606;50.934;6.934;2022-11-20T09:06:40;5.00;99.90
5174;DHT22;2606;50.934;6.934;2022-11-20T09:09:06;5.10;99.90
5174;DHT22;2606;50.934;6.934;2022-11-20T09:11:32;5.10;99.90
5174;DHT22;2606;50.934;6.934;2022-11-20T09:13:57;5.20;99.90
5174;DHT22;2606;50.934;6.934;2022-11-20T09:16:23;5.20;99.90
5174;DHT22;2606;50.934;6.934;2022-11-20T09:18:49;5.40;99.90
5174;DHT22;2606;50.934;6.934;2022-11-20T09:21:15;5.50;99.90
5174;DHT22;2606;50.934;6.934;2022-11-20T09:23:41;5.50;99.90
5174;DHT22;2606;50.934;6.934;2022-11-20T09:26:10;5.60;99.90
5174;DHT22;2606;50.934;6.934;2022-11-20T09:28:36;5.60;99.90
5174;DHT22;2606;50.934;6.934;2022-11-20T09:31:06;5.60;99.90
5174;DHT22;2606;50.934;6.934;2022-11-20T09:33:31;5.60;99.90
5174;DHT22;2606;50.934;6.934;2022-11-20T09:35:57;5.60;99.90
5174;DHT22;2606;50.934;6.934;2022-11-20T09:38:23;5.60;99.90
5174;DHT22;2606;50.934;6.934;2022-11-20T09:41:05;5.70;99.90
5174;DHT22;2606;50.934;6.934;2022-11-20T09:46:26;5.90;99.90
5174;DHT22;2606;50.934;6.934;2022-11-20T09:54:43;6.00;99.90
5174;DHT22;2606;50.934;6.934;2022-11-20T09:57:14;6.00;99.90
5174;DHT22;2606;50.934;6.934;2022-11-20T09:59:46;6.00;99.90
5174;DHT22;2606;50.934;6.934;2022-11-20T10:02:28;6.10;99.90
5174;DHT22;2606;50.934;6.934;2022-11-20T10:11:31;6.10;99.90
5174;DHT22;2606;50.934;6.934;2022-11-20T10:14:07;6.10;99.90
5174;DHT22;2606;50.934;6.934;2022-11-20T10:16:50;6.10;99.90
5174;DHT22;2606;50.934;6.934;2022-11-20T10:24:52;6.00;99.90
5174;DHT22;2606;50.934;6.934;2022-11-20T10:30:14;6.00;99.90
5174;DHT22;2606;50.934;6.934;2022-11-20T10:32:46;6.00;99.90
5174;DHT22;2606;50.934;6.934;2022-11-20T10:35:22;6.00;99.90
5174;DHT22;2606;50.934;6.934;2022-11-20T10:37:56;6.00;99.90
5174;DHT22;2606;50.934;6.934;2022-11-20T10:40:43;6.00;99.90
5174;DHT22;2606;50.934;6.934;2022-11-20T10:43:16;6.10;99.90
5174;DHT22;2606;50.934;6.934;2022-11-20T10:45:58;6.10;99.90
5174;DHT22;2606;50.934;6.934;2022-11-20T10:48:25;6.10;99.90
5174;DHT22;2606;50.934;6.934;2022-11-20T10:50:57;6.10;99.90
5174;DHT22;2606;50.934;6.934;2022-11-20T11:01:42;6.20;99.90
5174;DHT22;2606;50.934;6.934;2022-11-20T11:04:38;6.20;99.90
5174;DHT22;2606;50.934;6.934;2022-11-20T11:09:43;6.20;99.90
5174;DHT22;2606;50.934;6.934;2022-11-20T11:12:09;6.20;99.90
5174;DHT22;2606;50.934;6.934;2022-11-20T11:14:43;6.10;99.90
5174;DHT22;2606;50.934;6.934;2022-11-20T11:17:28;6.20;99.90
5174;DHT22;2606;50.934;6.934;2022-11-20T11:22:34;6.10;99.90
5174;DHT22;2606;50.934;6.934;2022-11-20T11:25:07;6.10;99.90
5174;DHT22;2606;50.934;6.934;2022-11-20T11:27:34;6.20;99.90
5174;DHT22;2606;50.934;6.934;2022-11-20T11:30:12;6.20;99.90
5174;DHT22;2606;50.934;6.934;2022-11-20T11:32:39;6.20;99.90
5174;DHT22;2606;50.934;6.934;2022-11-20T11:35:07;6.20;99.90
5174;DHT22;2606;50.934;6.934;2022-11-20T11:37:43;6.20;99.90
5174;DHT22;2606;50.934;6.934;2022-11-20T11:40:11;6.30;99.90
5174;DHT22;2606;50.934;6.934;2022-11-20T11:42:42;6.30;99.90
5174;DHT22;2606;50.934;6.934;2022-11-20T11:45:14;6.30;99.90
5174;DHT22;2606;50.934;6.934;2022-11-20T11:50:18;6.20;99.90
5174;DHT22;2606;50.934;6.934;2022-11-20T11:53:12;6.20;99.90
5174;DHT22;2606;50.934;6.934;2022-11-20T11:55:48;6.30;99.90
5174;DHT22;2606;50.934;6.934;2022-11-20T11:58:34;6.30;99.90
5174;DHT22;2606;50.934;6.934;2022-11-20T12:01:10;6.30;99.90
5174;DHT22;2606;50.934;6.934;2022-11-20T12:03:38;6.30;99.90
5174;DHT22;2606;50.934;6.934;2022-11-20T12:06:12;6.20;99.90
5174;DHT22;2606;50.934;6.934;2022-11-20T12:08:53;6.30;99.90
5174;DHT22;2606;50.934;6.934;2022-11-20T12:11:37;6.30;99.90
5174;DHT22;2606;50.934;6.934;2022-11-20T12:16:37;6.30;99.90
5174;DHT22;2606;50.934;6.934;2022-11-20T12:19:10;6.30;99.90
5174;DHT22;2606;50.934;6.934;2022-11-20T12:22:21;6.40;99.90
5174;DHT22;2606;50.934;6.934;2022-11-20T12:30:11;6.40;99.90
5174;DHT22;2606;50.934;6.934;2022-11-20T12:44:01;6.40;99.90
5174;DHT22;2606;50.934;6.934;2022-11-20T12:47:00;6.50;99.90
5174;DHT22;2606;50.934;6.934;2022-11-20T12:49:46;6.50;99.90
5174;DHT22;2606;50.934;6.934;2022-11-20T13:07:27;6.70;99.90
5174;DHT22;2606;50.934;6.934;2022-11-20T13:23:02;6.90;99.90
5174;DHT22;2606;50.934;6.934;2022-11-20T13:25:43;6.90;99.90
5174;DHT22;2606;50.934;6.934;2022-11-20T13:31:34;6.90;99.90
5174;DHT22;2606;50.934;6.934;2022-11-20T13:34:04;7.00;99.90
5174;DHT22;2606;50.934;6.934;2022-11-20T13:36:31;7.00;99.90
5174;DHT22;2606;50.934;6.934;2022-11-20T13:38:58;7.00;99.90
5174;DHT22;2606;50.934;6.934;2022-11-20T13:41:29;7.00;99.90
5174;DHT22;2606;50.934;6.934;2022-11-20T13:46:46;7.00;99.90
5174;DHT22;2606;50.934;6.934;2022-11-20T13:49:20;7.00;99.90
5174;DHT22;2606;50.934;6.934;2022-11-20T13:51:48;7.00;99.90
5174;DHT22;2606;50.934;6.934;2022-11-20T14:00:30;7.00;99.90
5174;DHT22;2606;50.934;6.934;2022-11-20T14:03:18;7.00;99.90
5174;DHT22;2606;50.934;6.934;2022-11-20T14:05:59;7.00;99.90
5174;DHT22;2606;50.934;6.934;2022-11-20T14:11:20;7.00;99.90
5174;DHT22;2606;50.934;6.934;2022-11-20T14:14:17;7.10;99.90
5174;DHT22;2606;50.934;6.934;2022-11-20T14:16:44;7.10;99.90
5174;DHT22;2606;50.934;6.934;2022-11-20T14:21:52;7.00;99.90
5174;DHT22;2606;50.934;6.934;2022-11-20T14:24:20;7.10;99.90
5174;DHT22;2606;50.934;6.934;2022-11-20T14:26:46;7.00;99.90
5174;DHT22;2606;50.934;6.934;2022-11-20T14:29:34;7.10;99.90
5174;DHT22;2606;50.934;6.934;2022-11-20T14:32:01;7.10;99.90
5174;DHT22;2606;50.934;6.934;2022-11-20T14:34:30;7.10;99.90
5174;DHT22;2606;50.934;6.934;2022-11-20T14:37:01;7.10;99.90
5174;DHT22;2606;50.934;6.934;2022-11-20T14:39:41;7.10;99.90
5174;DHT22;2606;50.934;6.934;2022-11-20T14:42:18;7.10;99.90
5174;DHT22;2606;50.934;6.934;2022-11-20T14:44:44;7.10;99.90
5174;DHT22;2606;50.934;6.934;2022-11-20T14:47:18;7.10;99.90
5174;DHT22;2606;50.934;6.934;2022-11-20T14:49:45;7.10;99.90
5174;DHT22;2606;50.934;6.934;2022-11-20T14:52:18;7.10;99.90
5174;DHT22;2606;50.934;6.934;2022-11-20T14:57:28;7.10;99.90
5174;DHT22;2606;50.934;6.934;2022-11-20T15:02:34;7.20;99.90
5174;DHT22;2606;50.934;6.934;2022-11-20T15:05:01;7.20;99.90
5174;DHT22;2606;50.934;6.934;2022-11-20T15:07:35;7.20;99.90
5174;DHT22;2606;50.934;6.934;2022-11-20T15:10:29;7.20;99.90
5174;DHT22;2606;50.934;6.934;2022-11-20T15:13:11;7.20;99.90
5174;DHT22;2606;50.934;6.934;2022-11-20T15:15:50;7.20;99.90
5174;DHT22;2606;50.934;6.934;2022-11-20T15:18:22;7.20;99.90
5174;DHT22;2606;50.934;6.934;2022-11-20T15:20:48;7.20;99.90
5174;DHT22;2606;50.934;6.934;2022-11-20T15:23:18;7.20;99.90
5174;DHT22;2606;50.934;6.934;2022-11-20T15:25:45;7.20;99.90
5174;DHT22;2606;50.934;6.934;2022-11-20T15:30:45;7.20;99.90
5174;DHT22;2606;50.934;6.934;2022-11-20T15:33:11;7.20;99.90
5174;DHT22;2606;50.934;6.934;2022-11-20T15:35:39;7.20;99.90
5174;DHT22;2606;50.934;6.934;2022-11-20T15:38:05;7.30;99.90
5174;DHT22;2606;50.934;6.934;2022-11-20T15:40:30;7.20;99.90
5174;DHT22;2606;50.934;6.934;2022-11-20T15:42:56;7.20;99.90
5174;DHT22;2606;50.934;6.934;2022-11-20T15:45:30;7.20;99.90
5174;DHT22;2606;50.934;6.934;2022-11-20T15:47:56;7.20;99.90
5174;DHT22;2606;50.934;6.934;2022-11-20T15:50:25;7.20;99.90
5174;DHT22;2606;50.934;6.934;2022-11-20T15:52:53;7.20;99.90
5174;DHT22;2606;50.934;6.934;2022-11-20T15:55:19;7.20;99.90
5174;DHT22;2606;50.934;6.934;2022-11-20T15:57:44;7.20;99.90
5174;DHT22;2606;50.934;6.934;2022-11-20T16:00:10;7.20;99.90
5174;DHT22;2606;50.934;6.934;2022-11-20T16:02:36;7.20;99.90
5174;DHT22;2606;50.934;6.934;2022-11-20T16:05:02;7.20;99.90
5174;DHT22;2606;50.934;6.934;2022-11-20T16:07:28;7.20;99.90
5174;DHT22;2606;50.934;6.934;2022-11-20T16:09:54;7.20;99.90
5174;DHT22;2606;50.934;6.934;2022-11-20T16:12:21;7.30;99.90
5174;DHT22;2606;50.934;6.934;2022-11-20T16:15:07;7.30;99.90
5174;DHT22;2606;50.934;6.934;2022-11-20T16:17:51;7.30;99.90
5174;DHT22;2606;50.934;6.934;2022-11-20T16:20:17;7.40;99.90
5174;DHT22;2606;50.934;6.934;2022-11-20T16:22:42;7.40;99.90
5174;DHT22;2606;50.934;6.934;2022-11-20T16:25:08;7.40;99.90
5174;DHT22;2606;50.934;6.934;2022-11-20T16:27:33;7.40;99.90
5174;DHT22;2606;50.934;6.934;2022-11-20T16:29:59;7.50;99.90
5174;DHT22;2606;50.934;6.934;2022-11-20T16:32:24;7.40;99.90
5174;DHT22;2606;50.934;6.934;2022-11-20T16:34:50;7.40;99.90
5174;DHT22;2606;50.934;6.934;2022-11-20T16:37:16;7.40;99.90
5174;DHT22;2606;50.934;6.934;2022-11-20T16:39:41;7.40;99.90
5174;DHT22;2606;50.934;6.934;2022-11-20T16:42:07;7.40;99.90
5174;DHT22;2606;50.934;6.934;2022-11-20T16:44:32;7.40;99.90
5174;DHT22;2606;50.934;6.934;2022-11-20T16:46:59;7.40;99.90
5174;DHT22;2606;50.934;6.934;2022-11-20T16:49:24;7.50;99.90
5174;DHT22;2606;50.934;6.934;2022-11-20T16:51:50;7.40;99.90
5174;DHT22;2606;50.934;6.934;2022-11-20T16:54:16;7.40;99.90
5174;DHT22;2606;50.934;6.934;2022-11-20T16:56:41;7.40;99.90
5174;DHT22;2606;50.934;6.934;2022-11-20T16:59:07;7.40;99.90
5174;DHT22;2606;50.934;6.934;2022-11-20T17:01:33;7.40;99.90
5174;DHT22;2606;50.934;6.934;2022-11-20T17:04:03;7.40;99.90
5174;DHT22;2606;50.934;6.934;2022-11-20T17:06:31;7.40;99.90
5174;DHT22;2606;50.934;6.934;2022-11-20T17:08:58;7.40;99.90
5174;DHT22;2606;50.934;6.934;2022-11-20T17:11:24;7.50;99.90
5174;DHT22;2606;50.934;6.934;2022-11-20T17:13:50;7.50;99.90
5174;DHT22;2606;50.934;6.934;2022-11-20T17:16:19;7.50;99.90
5174;DHT22;2606;50.934;6.934;2022-11-20T17:18:45;7.50;99.90
5174;DHT22;2606;50.934;6.934;2022-11-20T17:21:12;7.50;99.90
5174;DHT22;2606;50.934;6.934;2022-11-20T17:23:42;7.50;99.90
5174;DHT22;2606;50.934;6.934;2022-11-20T17:26:09;7.50;99.90
5174;DHT22;2606;50.934;6.934;2022-11-20T17:28:36;7.50;99.90
5174;DHT22;2606;50.934;6.934;2022-11-20T17:31:06;7.50;99.90
5174;DHT22;2606;50.934;6.934;2022-11-20T17:33:34;7.50;99.90
5174;DHT22;2606;50.934;6.934;2022-11-20T17:36:00;7.50;99.90
5174;DHT22;2606;50.934;6.934;2022-11-20T17:38:26;7.50;99.90
5174;DHT22;2606;50.934;6.934;2022-11-20T17:40:52;7.50;99.90
5174;DHT22;2606;50.934;6.934;2022-11-20T17:43:17;7.50;99.90
5174;DHT22;2606;50.934;6.934;2022-11-20T17:45:43;7.50;99.90
5174;DHT22;2606;50.934;6.934;2022-11-20T17:48:10;7.40;99.90
5174;DHT22;2606;50.934;6.934;2022-11-20T17:50:35;7.50;99.90
5174;DHT22;2606;50.934;6.934;2022-11-20T17:53:01;7.40;99.90
5174;DHT22;2606;50.934;6.934;2022-11-20T17:55:27;7.40;99.90
5174;DHT22;2606;50.934;6.934;2022-11-20T17:58:12;7.40;99.90
5174;DHT22;2606;50.934;6.934;2022-11-20T18:00:38;7.40;99.90
5174;DHT22;2606;50.934;6.934;2022-11-20T18:03:03;7.30;99.90
5174;DHT22;2606;50.934;6.934;2022-11-20T18:05:29;7.30;99.90
5174;DHT22;2606;50.934;6.934;2022-11-20T18:07:54;7.30;99.90
5174;DHT22;2606;50.934;6.934;2022-11-20T18:10:20;7.30;99.90
5174;DHT22;2606;50.934;6.934;2022-11-20T18:12:46;7.30;99.90
5174;DHT22;2606;50.934;6.934;2022-11-20T18:15:11;7.30;99.90
5174;DHT22;2606;50.934;6.934;2022-11-20T18:17:37;7.30;99.90
5174;DHT22;2606;50.934;6.934;2022-11-20T18:20:03;7.40;99.90
5174;DHT22;2606;50.934;6.934;2022-11-20T18:22:28;7.30;99.90